F/V Le Lespenhy — FGDY — position and weather

sailwx.info

Track history (hours):
 
Tides and Currents Weather Stations Pressure Air Temp Water Temp Dewpoint Dewpoint Depression Visibility Wind Speed Wind Dir Waves Ship Positions

F/V Le Lespenhy

Last reported at 2018-Jun-19 01:00 UTC. Time now 2018-Jun-19 01:22 UTC.
Position N 47°52' W 003°55'.

Length 15 m.

Type: Fishing. MMSI: 228853000.

Date/timePositionNaut miles runAvg speedWind from/ knotsBaromVisibWave heightAir tempDewpointWater temp
2018-Jun-19 01:00N 47°52' W 003°55'5 8.2
2018-Jun-19 00:27N 47°47' W 003°56'4 8.4
2018-Jun-18 23:58N 47°43' W 003°55'4 7.9
2018-Jun-18 23:26N 47°39' W 003°55'3 7.9
2018-Jun-18 23:00N 47°36' W 003°55'4 7.8
2018-Jun-18 22:29N 47°32' W 003°55'4 8.0
2018-Jun-18 21:59N 47°28' W 003°56'2 3.9
2018-Jun-18 21:26N 47°26' W 003°56'5 3.2
2018-Jun-18 19:53N 47°22' W 004°01'1 3.4
2018-Jun-18 19:28N 47°21' W 004°02'1 2.2
2018-Jun-18 18:56N 47°20' W 004°04'1 1.3
2018-Jun-18 17:54N 47°20' W 004°03'1 0.1
2018-Jun-18 11:00N 47°20' W 004°03'2 3.0
2018-Jun-18 10:17N 47°18' W 004°02'1 2.8
2018-Jun-18 09:52N 47°17' W 004°03'1 3.3
2018-Jun-18 09:30N 47°17' W 004°05'2 3.4
2018-Jun-18 08:59N 47°16' W 004°07'1 1.9
2018-Jun-18 08:29N 47°15' W 004°07'2 3.3
2018-Jun-18 07:58N 47°17' W 004°06'1 3.2
2018-Jun-18 07:30N 47°18' W 004°07'1 2.6
2018-Jun-18 07:00N 47°18' W 004°08'2 3.1
2018-Jun-18 06:29N 47°16' W 004°08'2 3.3
2018-Jun-18 05:58N 47°15' W 004°08'1 2.7
2018-Jun-18 05:30N 47°14' W 004°10'3 3.1
2018-Jun-18 04:30N 47°17' W 004°07'2 3.1
2018-Jun-18 03:48N 47°19' W 004°05'1 3.2
2018-Jun-18 03:30N 47°20' W 004°05'2 4.4
2018-Jun-18 03:00N 47°22' W 004°05'4 8.0
2018-Jun-18 02:27N 47°26' W 004°05'4 8.0
2018-Jun-18 01:59N 47°30' W 004°06'6 7.9
2018-Jun-18 01:13N 47°36' W 004°07'2 7.9
2018-Jun-18 01:00N 47°38' W 004°07'13 0.3
2018-Jun-16 02:40N 47°50' W 003°59'2 1.4
2018-Jun-16 01:06N 47°51' W 003°56'1 8.9
2018-Jun-16 01:00N 47°50' W 003°56'4 8.7
2018-Jun-16 00:30N 47°46' W 003°56'5 8.9
2018-Jun-15 23:57N 47°41' W 003°55'7 8.6
2018-Jun-15 23:08N 47°34' W 003°57'1 8.5
2018-Jun-15 23:00N 47°33' W 003°58'2 3.8
2018-Jun-15 22:30N 47°31' W 003°58'2 3.7
2018-Jun-15 21:56N 47°29' W 003°59'4 0.2
2018-Jun-15 06:23N 47°26' W 003°56'2 3.6
2018-Jun-15 05:50N 47°27' W 003°53'1 3.6
2018-Jun-15 05:29N 47°28' W 003°52'2 3.2
2018-Jun-15 05:00N 47°29' W 003°53'2 3.7
2018-Jun-15 04:29N 47°30' W 003°55'3 5.3
2018-Jun-15 04:00N 47°33' W 003°56'7 8.5
2018-Jun-15 03:11N 47°39' W 003°55'3 8.6
2018-Jun-15 02:48N 47°43' W 003°55'7 3.0
2018-Jun-15 00:30N 47°50' W 003°56'6 8.7
2018-Jun-14 23:48N 47°44' W 003°55'28 1.7
2018-Jun-14 07:33N 47°17' W 004°06'1 3.5
2018-Jun-14 07:12N 47°16' W 004°04'0 1.0
2018-Jun-14 06:56N 47°16' W 004°04'2 2.7
2018-Jun-14 06:03N 47°18' W 004°06'4 3.4
2018-Jun-14 04:50N 47°21' W 004°02'1 3.2
2018-Jun-14 04:27N 47°22' W 004°01'2 3.4
2018-Jun-14 03:56N 47°24' W 003°60'4 8.3
2018-Jun-14 03:29N 47°28' W 003°59'4 8.2
2018-Jun-14 02:57N 47°32' W 003°57'4 7.9
2018-Jun-14 02:26N 47°36' W 003°56'5 7.9
2018-Jun-14 01:52N 47°40' W 003°55'6 8.2
2018-Jun-14 01:09N 47°46' W 003°56'2 8.2
2018-Jun-14 00:56N 47°48' W 003°56'3 1.1
2018-Jun-13 22:31N 47°51' W 003°56'0 8.1
2018-Jun-13 22:28N 47°50' W 003°56'4 8.0
2018-Jun-13 21:58N 47°46' W 003°54'4 7.8
2018-Jun-13 21:23N 47°42' W 003°51'3 7.8
2018-Jun-13 21:00N 47°39' W 003°50'4 7.7
2018-Jun-13 20:27N 47°35' W 003°48'3 7.7
2018-Jun-13 20:00N 47°32' W 003°46'4 7.8
2018-Jun-13 19:30N 47°28' W 003°44'4 7.7
2018-Jun-13 19:00N 47°25' W 003°42'4 7.4
2018-Jun-13 18:30N 47°21' W 003°40'4 7.2
2018-Jun-13 17:58N 47°18' W 003°38'3 6.1
2018-Jun-13 17:27N 47°15' W 003°36'1 1.6
2018-Jun-13 16:57N 47°15' W 003°35'2 3.2
2018-Jun-13 16:26N 47°13' W 003°34'1 3.2
2018-Jun-13 15:59N 47°12' W 003°34'3 2.6
2018-Jun-13 14:55N 47°09' W 003°32'1 3.3
2018-Jun-13 14:30N 47°08' W 003°30'2 3.3
2018-Jun-13 14:00N 47°07' W 003°30'7 3.1
2018-Jun-13 11:41N 46°60' W 003°30'1 3.2
2018-Jun-13 11:24N 47°00' W 003°30'2 3.2
2018-Jun-13 10:37N 47°02' W 003°32'2 1.9
2018-Jun-13 09:50N 47°01' W 003°31'2 3.6
2018-Jun-13 09:22N 47°01' W 003°28'1 1.7
2018-Jun-13 08:51N 47°00' W 003°29'1 3.4
2018-Jun-13 08:27N 47°01' W 003°31'1 1.7
2018-Jun-13 08:00N 47°01' W 003°30'2 3.1
2018-Jun-13 07:30N 46°60' W 003°30'4 1.0
2018-Jun-13 03:18N 47°04' W 003°29'2 2.5
2018-Jun-13 02:34N 47°02' W 003°29'1 3.3
2018-Jun-13 02:21N 47°02' W 003°29'1 3.3
2018-Jun-13 01:55N 47°00' W 003°28'5 3.4
2018-Jun-13 00:31N 46°56' W 003°30'0 3.7
2018-Jun-13 00:30N 46°56' W 003°30'2 3.3
2018-Jun-12 23:45N 46°54' W 003°33'1 2.9
2018-Jun-12 23:27N 46°55' W 003°32'1 3.1
2018-Jun-12 22:59N 46°56' W 003°31'2 3.1
2018-Jun-12 22:30N 46°57' W 003°29'1 2.4
2018-Jun-12 21:59N 46°56' W 003°28'2 3.4
2018-Jun-12 21:30N 46°55' W 003°31'2 3.4
2018-Jun-12 20:57N 46°55' W 003°33'6 0.5
2018-Jun-12 08:26N 47°01' W 003°31'4 2.7
2018-Jun-12 06:46N 47°05' W 003°28'2 3.8
2018-Jun-12 06:07N 47°07' W 003°29'3 7.5
2018-Jun-12 05:46N 47°10' W 003°31'2 7.6
2018-Jun-12 05:30N 47°12' W 003°32'4 7.8
2018-Jun-12 04:59N 47°15' W 003°34'4 8.1
2018-Jun-12 04:30N 47°19' W 003°37'4 8.1
2018-Jun-12 04:00N 47°23' W 003°39'4 8.0
2018-Jun-12 03:30N 47°26' W 003°41'4 8.0
2018-Jun-12 03:00N 47°30' W 003°44'4 8.0
2018-Jun-12 02:30N 47°34' W 003°46'4 8.0
2018-Jun-12 02:00N 47°37' W 003°48'4 8.3
2018-Jun-12 01:29N 47°41' W 003°51'4 8.5
2018-Jun-12 00:59N 47°45' W 003°53'4 8.3
2018-Jun-12 00:28N 47°49' W 003°55'2 1.3
2018-Jun-11 23:07N 47°51' W 003°56'1 7.5
2018-Jun-11 22:59N 47°50' W 003°56'3 6.8
2018-Jun-11 22:29N 47°47' W 003°54'4 7.1
2018-Jun-11 21:59N 47°44' W 003°52'3 7.1
2018-Jun-11 21:30N 47°41' W 003°50'3 6.1
2018-Jun-11 21:00N 47°38' W 003°48'1 1.9
2018-Jun-11 20:30N 47°38' W 003°49'2 3.1
2018-Jun-11 20:00N 47°36' W 003°50'2 3.1
2018-Jun-11 19:30N 47°35' W 003°51'1 3.0
2018-Jun-11 19:00N 47°34' W 003°52'2 3.0
2018-Jun-11 18:17N 47°32' W 003°53'1 1.9
2018-Jun-11 17:56N 47°32' W 003°54'1 1.5
2018-Jun-11 16:59N 47°34' W 003°54'2 3.1
2018-Jun-11 16:30N 47°33' W 003°53'2 3.2
2018-Jun-11 16:00N 47°33' W 003°51'1 2.9
2018-Jun-11 15:30N 47°34' W 003°53'1 0.9
2018-Jun-11 14:24N 47°34' W 003°54'1 3.4
2018-Jun-11 14:00N 47°33' W 003°52'1 1.9
2018-Jun-11 13:30N 47°34' W 003°51'2 3.3
2018-Jun-11 13:00N 47°33' W 003°53'2 3.1
2018-Jun-11 12:27N 47°33' W 003°51'1 3.3
2018-Jun-11 12:01N 47°33' W 003°49'1 2.8
2018-Jun-11 11:30N 47°35' W 003°50'4 2.1
2018-Jun-11 09:42N 47°34' W 003°55'1 3.8
2018-Jun-11 09:29N 47°33' W 003°55'2 2.5
2018-Jun-11 08:38N 47°33' W 003°52'1 3.5
2018-Jun-11 08:25N 47°33' W 003°52'3 1.3
2018-Jun-11 06:15N 47°36' W 003°54'1 3.7
2018-Jun-11 06:00N 47°35' W 003°53'2 3.8
2018-Jun-11 05:30N 47°35' W 003°50'2 3.7
2018-Jun-11 05:00N 47°35' W 003°47'5 3.2
2018-Jun-11 03:31N 47°39' W 003°45'0 0.8
2018-Jun-11 03:30N 47°39' W 003°45'4 8.2
2018-Jun-11 02:59N 47°42' W 003°50'  
Track history (hours):
 
Tides and Currents Weather Stations Pressure Air Temp Water Temp Dewpoint Dewpoint Depression Visibility Wind Speed Wind Dir Waves Ship Positions

F/V Le Lespenhy

Last reported at 2018-Jun-19 01:00 UTC. Time now 2018-Jun-19 01:22 UTC.
Position N 47°52' W 003°55'.

Length 15 m.

Type: Fishing. MMSI: 228853000.

Date/timePositionNaut miles runAvg speedWind from/ knotsBaromVisibWave heightAir tempDewpointWater temp
2018-Jun-19 01:00N 47°52' W 003°55'5 8.2
2018-Jun-19 00:27N 47°47' W 003°56'4 8.4
2018-Jun-18 23:58N 47°43' W 003°55'4 7.9
2018-Jun-18 23:26N 47°39' W 003°55'3 7.9
2018-Jun-18 23:00N 47°36' W 003°55'4 7.8
2018-Jun-18 22:29N 47°32' W 003°55'4 8.0
2018-Jun-18 21:59N 47°28' W 003°56'2 3.9
2018-Jun-18 21:26N 47°26' W 003°56'5 3.2
2018-Jun-18 19:53N 47°22' W 004°01'1 3.4
2018-Jun-18 19:28N 47°21' W 004°02'1 2.2
2018-Jun-18 18:56N 47°20' W 004°04'1 1.3
2018-Jun-18 17:54N 47°20' W 004°03'1 0.1
2018-Jun-18 11:00N 47°20' W 004°03'2 3.0
2018-Jun-18 10:17N 47°18' W 004°02'1 2.8
2018-Jun-18 09:52N 47°17' W 004°03'1 3.3
2018-Jun-18 09:30N 47°17' W 004°05'2 3.4
2018-Jun-18 08:59N 47°16' W 004°07'1 1.9
2018-Jun-18 08:29N 47°15' W 004°07'2 3.3
2018-Jun-18 07:58N 47°17' W 004°06'1 3.2
2018-Jun-18 07:30N 47°18' W 004°07'1 2.6
2018-Jun-18 07:00N 47°18' W 004°08'2 3.1
2018-Jun-18 06:29N 47°16' W 004°08'2 3.3
2018-Jun-18 05:58N 47°15' W 004°08'1 2.7
2018-Jun-18 05:30N 47°14' W 004°10'3 3.1
2018-Jun-18 04:30N 47°17' W 004°07'2 3.1
2018-Jun-18 03:48N 47°19' W 004°05'1 3.2
2018-Jun-18 03:30N 47°20' W 004°05'2 4.4
2018-Jun-18 03:00N 47°22' W 004°05'4 8.0
2018-Jun-18 02:27N 47°26' W 004°05'4 8.0
2018-Jun-18 01:59N 47°30' W 004°06'6 7.9
2018-Jun-18 01:13N 47°36' W 004°07'2 7.9
2018-Jun-18 01:00N 47°38' W 004°07'13 0.3
2018-Jun-16 02:40N 47°50' W 003°59'2 1.4
2018-Jun-16 01:06N 47°51' W 003°56'1 8.9
2018-Jun-16 01:00N 47°50' W 003°56'4 8.7
2018-Jun-16 00:30N 47°46' W 003°56'5 8.9
2018-Jun-15 23:57N 47°41' W 003°55'7 8.6
2018-Jun-15 23:08N 47°34' W 003°57'1 8.5
2018-Jun-15 23:00N 47°33' W 003°58'2 3.8
2018-Jun-15 22:30N 47°31' W 003°58'2 3.7
2018-Jun-15 21:56N 47°29' W 003°59'4 0.2
2018-Jun-15 06:23N 47°26' W 003°56'2 3.6
2018-Jun-15 05:50N 47°27' W 003°53'1 3.6
2018-Jun-15 05:29N 47°28' W 003°52'2 3.2
2018-Jun-15 05:00N 47°29' W 003°53'2 3.7
2018-Jun-15 04:29N 47°30' W 003°55'3 5.3
2018-Jun-15 04:00N 47°33' W 003°56'7 8.5
2018-Jun-15 03:11N 47°39' W 003°55'3 8.6
2018-Jun-15 02:48N 47°43' W 003°55'7 3.0
2018-Jun-15 00:30N 47°50' W 003°56'6 8.7
2018-Jun-14 23:48N 47°44' W 003°55'28 1.7
2018-Jun-14 07:33N 47°17' W 004°06'1 3.5
2018-Jun-14 07:12N 47°16' W 004°04'0 1.0
2018-Jun-14 06:56N 47°16' W 004°04'2 2.7
2018-Jun-14 06:03N 47°18' W 004°06'4 3.4
2018-Jun-14 04:50N 47°21' W 004°02'1 3.2
2018-Jun-14 04:27N 47°22' W 004°01'2 3.4
2018-Jun-14 03:56N 47°24' W 003°60'4 8.3
2018-Jun-14 03:29N 47°28' W 003°59'4 8.2
2018-Jun-14 02:57N 47°32' W 003°57'4 7.9
2018-Jun-14 02:26N 47°36' W 003°56'5 7.9
2018-Jun-14 01:52N 47°40' W 003°55'6 8.2
2018-Jun-14 01:09N 47°46' W 003°56'2 8.2
2018-Jun-14 00:56N 47°48' W 003°56'3 1.1
2018-Jun-13 22:31N 47°51' W 003°56'0 8.1
2018-Jun-13 22:28N 47°50' W 003°56'4 8.0
2018-Jun-13 21:58N 47°46' W 003°54'4 7.8
2018-Jun-13 21:23N 47°42' W 003°51'3 7.8
2018-Jun-13 21:00N 47°39' W 003°50'4 7.7
2018-Jun-13 20:27N 47°35' W 003°48'3 7.7
2018-Jun-13 20:00N 47°32' W 003°46'4 7.8
2018-Jun-13 19:30N 47°28' W 003°44'4 7.7
2018-Jun-13 19:00N 47°25' W 003°42'4 7.4
2018-Jun-13 18:30N 47°21' W 003°40'4 7.2
2018-Jun-13 17:58N 47°18' W 003°38'3 6.1
2018-Jun-13 17:27N 47°15' W 003°36'1 1.6
2018-Jun-13 16:57N 47°15' W 003°35'2 3.2
2018-Jun-13 16:26N 47°13' W 003°34'1 3.2
2018-Jun-13 15:59N 47°12' W 003°34'3 2.6
2018-Jun-13 14:55N 47°09' W 003°32'1 3.3
2018-Jun-13 14:30N 47°08' W 003°30'2 3.3
2018-Jun-13 14:00N 47°07' W 003°30'7 3.1
2018-Jun-13 11:41N 46°60' W 003°30'1 3.2
2018-Jun-13 11:24N 47°00' W 003°30'2 3.2
2018-Jun-13 10:37N 47°02' W 003°32'2 1.9
2018-Jun-13 09:50N 47°01' W 003°31'2 3.6
2018-Jun-13 09:22N 47°01' W 003°28'1 1.7
2018-Jun-13 08:51N 47°00' W 003°29'1 3.4
2018-Jun-13 08:27N 47°01' W 003°31'1 1.7
2018-Jun-13 08:00N 47°01' W 003°30'2 3.1
2018-Jun-13 07:30N 46°60' W 003°30'4 1.0
2018-Jun-13 03:18N 47°04' W 003°29'2 2.5
2018-Jun-13 02:34N 47°02' W 003°29'1 3.3
2018-Jun-13 02:21N 47°02' W 003°29'1 3.3
2018-Jun-13 01:55N 47°00' W 003°28'5 3.4
2018-Jun-13 00:31N 46°56' W 003°30'0 3.7
2018-Jun-13 00:30N 46°56' W 003°30'2 3.3
2018-Jun-12 23:45N 46°54' W 003°33'1 2.9
2018-Jun-12 23:27N 46°55' W 003°32'1 3.1
2018-Jun-12 22:59N 46°56' W 003°31'2 3.1
2018-Jun-12 22:30N 46°57' W 003°29'1 2.4
2018-Jun-12 21:59N 46°56' W 003°28'2 3.4
2018-Jun-12 21:30N 46°55' W 003°31'2 3.4
2018-Jun-12 20:57N 46°55' W 003°33'6 0.5
2018-Jun-12 08:26N 47°01' W 003°31'4 2.7
2018-Jun-12 06:46N 47°05' W 003°28'2 3.8
2018-Jun-12 06:07N 47°07' W 003°29'3 7.5
2018-Jun-12 05:46N 47°10' W 003°31'2 7.6
2018-Jun-12 05:30N 47°12' W 003°32'4 7.8
2018-Jun-12 04:59N 47°15' W 003°34'4 8.1
2018-Jun-12 04:30N 47°19' W 003°37'4 8.1
2018-Jun-12 04:00N 47°23' W 003°39'4 8.0
2018-Jun-12 03:30N 47°26' W 003°41'4 8.0
2018-Jun-12 03:00N 47°30' W 003°44'4 8.0
2018-Jun-12 02:30N 47°34' W 003°46'4 8.0
2018-Jun-12 02:00N 47°37' W 003°48'4 8.3
2018-Jun-12 01:29N 47°41' W 003°51'4 8.5
2018-Jun-12 00:59N 47°45' W 003°53'4 8.3
2018-Jun-12 00:28N 47°49' W 003°55'2 1.3
2018-Jun-11 23:07N 47°51' W 003°56'1 7.5
2018-Jun-11 22:59N 47°50' W 003°56'3 6.8
2018-Jun-11 22:29N 47°47' W 003°54'4 7.1
2018-Jun-11 21:59N 47°44' W 003°52'3 7.1
2018-Jun-11 21:30N 47°41' W 003°50'3 6.1
2018-Jun-11 21:00N 47°38' W 003°48'1 1.9
2018-Jun-11 20:30N 47°38' W 003°49'2 3.1
2018-Jun-11 20:00N 47°36' W 003°50'2 3.1
2018-Jun-11 19:30N 47°35' W 003°51'1 3.0
2018-Jun-11 19:00N 47°34' W 003°52'2 3.0
2018-Jun-11 18:17N 47°32' W 003°53'1 1.9
2018-Jun-11 17:56N 47°32' W 003°54'1 1.5
2018-Jun-11 16:59N 47°34' W 003°54'2 3.1
2018-Jun-11 16:30N 47°33' W 003°53'2 3.2
2018-Jun-11 16:00N 47°33' W 003°51'1 2.9
2018-Jun-11 15:30N 47°34' W 003°53'1 0.9
2018-Jun-11 14:24N 47°34' W 003°54'1 3.4
2018-Jun-11 14:00N 47°33' W 003°52'1 1.9
2018-Jun-11 13:30N 47°34' W 003°51'2 3.3
2018-Jun-11 13:00N 47°33' W 003°53'2 3.1
2018-Jun-11 12:27N 47°33' W 003°51'1 3.3
2018-Jun-11 12:01N 47°33' W 003°49'1 2.8
2018-Jun-11 11:30N 47°35' W 003°50'4 2.1
2018-Jun-11 09:42N 47°34' W 003°55'1 3.8
2018-Jun-11 09:29N 47°33' W 003°55'2 2.5
2018-Jun-11 08:38N 47°33' W 003°52'1 3.5
2018-Jun-11 08:25N 47°33' W 003°52'3 1.3
2018-Jun-11 06:15N 47°36' W 003°54'1 3.7
2018-Jun-11 06:00N 47°35' W 003°53'2 3.8
2018-Jun-11 05:30N 47°35' W 003°50'2 3.7
2018-Jun-11 05:00N 47°35' W 003°47'5 3.2
2018-Jun-11 03:31N 47°39' W 003°45'0 0.8
2018-Jun-11 03:30N 47°39' W 003°45'4 8.2
2018-Jun-11 02:59N 47°42' W 003°50'  

Dump ship's entire track history